sensor_id;sensor_type;location;lat;lon;timestamp;pressure;altitude;pressure_sealevel;temperature
24201;BMP280;2801;50.972;7.856;2023-01-25T00:01:06;99370.03;;;1.01
24201;BMP280;2801;50.972;7.856;2023-01-25T00:03:33;99363.72;;;1.02
24201;BMP280;2801;50.972;7.856;2023-01-25T00:06:00;99364.16;;;0.99
24201;BMP280;2801;50.972;7.856;2023-01-25T00:08:27;99347.19;;;0.88
24201;BMP280;2801;50.972;7.856;2023-01-25T00:10:54;99364.75;;;1.01
24201;BMP280;2801;50.972;7.856;2023-01-25T00:13:24;99361.72;;;0.97
24201;BMP280;2801;50.972;7.856;2023-01-25T00:15:52;99354.22;;;0.94
24201;BMP280;2801;50.972;7.856;2023-01-25T00:18:19;99354.84;;;0.96
24201;BMP280;2801;50.972;7.856;2023-01-25T00:20:46;99353.38;;;1.00
24201;BMP280;2801;50.972;7.856;2023-01-25T00:23:13;99348.69;;;1.02
24201;BMP280;2801;50.972;7.856;2023-01-25T00:25:40;99355.19;;;1.00
24201;BMP280;2801;50.972;7.856;2023-01-25T00:28:07;99348.53;;;0.97
24201;BMP280;2801;50.972;7.856;2023-01-25T00:30:34;99350.16;;;0.98
24201;BMP280;2801;50.972;7.856;2023-01-25T00:33:34;99347.94;;;0.95
24201;BMP280;2801;50.972;7.856;2023-01-25T00:39:04;99340.66;;;0.91
24201;BMP280;2801;50.972;7.856;2023-01-25T00:41:32;99338.44;;;0.88
24201;BMP280;2801;50.972;7.856;2023-01-25T00:43:58;99340.22;;;0.94
24201;BMP280;2801;50.972;7.856;2023-01-25T00:46:25;99340.81;;;0.96
24201;BMP280;2801;50.972;7.856;2023-01-25T00:48:53;99339.00;;;0.96
24201;BMP280;2801;50.972;7.856;2023-01-25T00:51:22;99331.28;;;0.95
24201;BMP280;2801;50.972;7.856;2023-01-25T00:53:50;99334.53;;;0.97
24201;BMP280;2801;50.972;7.856;2023-01-25T00:56:17;99335.09;;;0.99
24201;BMP280;2801;50.972;7.856;2023-01-25T00:58:43;99335.75;;;0.94
24201;BMP280;2801;50.972;7.856;2023-01-25T01:01:11;99336.41;;;0.90
24201;BMP280;2801;50.972;7.856;2023-01-25T01:03:39;99330.69;;;0.93
24201;BMP280;2801;50.972;7.856;2023-01-25T01:06:11;99332.53;;;0.92
24201;BMP280;2801;50.972;7.856;2023-01-25T01:08:40;99322.31;;;0.96
24201;BMP280;2801;50.972;7.856;2023-01-25T01:11:10;99324.75;;;0.97
24201;BMP280;2801;50.972;7.856;2023-01-25T01:13:38;99319.25;;;0.99
24201;BMP280;2801;50.972;7.856;2023-01-25T01:16:08;99316.63;;;0.99
24201;BMP280;2801;50.972;7.856;2023-01-25T01:18:43;99328.16;;;1.04
24201;BMP280;2801;50.972;7.856;2023-01-25T01:21:12;99326.38;;;0.98
24201;BMP280;2801;50.972;7.856;2023-01-25T01:23:40;99326.81;;;0.95
24201;BMP280;2801;50.972;7.856;2023-01-25T01:26:11;99327.19;;;0.99
24201;BMP280;2801;50.972;7.856;2023-01-25T01:28:39;99327.81;;;0.94
24201;BMP280;2801;50.972;7.856;2023-01-25T01:31:15;99323.78;;;0.92
24201;BMP280;2801;50.972;7.856;2023-01-25T01:33:42;99324.66;;;0.86
24201;BMP280;2801;50.972;7.856;2023-01-25T01:36:14;99319.75;;;0.89
24201;BMP280;2801;50.972;7.856;2023-01-25T01:38:41;99326.88;;;0.89
24201;BMP280;2801;50.972;7.856;2023-01-25T01:41:10;99324.00;;;0.90
24201;BMP280;2801;50.972;7.856;2023-01-25T01:43:38;99330.69;;;0.93
24201;BMP280;2801;50.972;7.856;2023-01-25T01:48:55;99323.03;;;0.85
24201;BMP280;2801;50.972;7.856;2023-01-25T01:51:39;99317.75;;;0.85
24201;BMP280;2801;50.972;7.856;2023-01-25T01:57:30;99317.16;;;0.83
24201;BMP280;2801;50.972;7.856;2023-01-25T02:00:27;99328.50;;;0.90
24201;BMP280;2801;50.972;7.856;2023-01-25T02:02:55;99319.47;;;0.97
24201;BMP280;2801;50.972;7.856;2023-01-25T02:06:00;99308.47;;;1.00
24201;BMP280;2801;50.972;7.856;2023-01-25T02:08:32;99307.22;;;1.03
24201;BMP280;2801;50.972;7.856;2023-01-25T02:11:03;99310.97;;;0.95
24201;BMP280;2801;50.972;7.856;2023-01-25T02:13:31;99307.72;;;0.93
24201;BMP280;2801;50.972;7.856;2023-01-25T02:15:58;99300.47;;;0.89
24201;BMP280;2801;50.972;7.856;2023-01-25T02:18:25;99303.13;;;0.89
24201;BMP280;2801;50.972;7.856;2023-01-25T02:20:55;99306.75;;;0.88
24201;BMP280;2801;50.972;7.856;2023-01-25T02:23:47;99304.19;;;0.81
24201;BMP280;2801;50.972;7.856;2023-01-25T02:26:17;99302.16;;;0.83
24201;BMP280;2801;50.972;7.856;2023-01-25T02:28:58;99299.50;;;0.83
24201;BMP280;2801;50.972;7.856;2023-01-25T02:31:27;99298.84;;;0.88
24201;BMP280;2801;50.972;7.856;2023-01-25T02:33:54;99307.19;;;0.85
24201;BMP280;2801;50.972;7.856;2023-01-25T02:36:27;99304.78;;;0.83
24201;BMP280;2801;50.972;7.856;2023-01-25T02:39:03;99303.53;;;0.86
24201;BMP280;2801;50.972;7.856;2023-01-25T02:41:39;99300.91;;;0.86
24201;BMP280;2801;50.972;7.856;2023-01-25T02:44:14;99300.91;;;0.86
24201;BMP280;2801;50.972;7.856;2023-01-25T02:46:43;99298.41;;;0.91
24201;BMP280;2801;50.972;7.856;2023-01-25T02:49:18;99290.13;;;0.87
24201;BMP280;2801;50.972;7.856;2023-01-25T02:51:49;99286.03;;;0.91
24201;BMP280;2801;50.972;7.856;2023-01-25T02:54:18;99283.81;;;0.88
24201;BMP280;2801;50.972;7.856;2023-01-25T02:56:46;99294.72;;;0.92
24201;BMP280;2801;50.972;7.856;2023-01-25T02:59:13;99285.13;;;0.97
24201;BMP280;2801;50.972;7.856;2023-01-25T03:01:42;99283.47;;;1.03
24201;BMP280;2801;50.972;7.856;2023-01-25T03:04:09;99287.06;;;1.08
24201;BMP280;2801;50.972;7.856;2023-01-25T03:06:37;99291.38;;;1.03
24201;BMP280;2801;50.972;7.856;2023-01-25T03:09:07;99289.78;;;1.02
24201;BMP280;2801;50.972;7.856;2023-01-25T03:11:34;99291.81;;;1.00
24201;BMP280;2801;50.972;7.856;2023-01-25T03:14:01;99286.16;;;0.96
24201;BMP280;2801;50.972;7.856;2023-01-25T03:16:30;99288.00;;;0.96
24201;BMP280;2801;50.972;7.856;2023-01-25T03:18:57;99286.78;;;0.98
24201;BMP280;2801;50.972;7.856;2023-01-25T03:21:24;99287.13;;;1.02
24201;BMP280;2801;50.972;7.856;2023-01-25T03:23:58;99286.53;;;1.00
24201;BMP280;2801;50.972;7.856;2023-01-25T03:26:27;99280.81;;;1.03
24201;BMP280;2801;50.972;7.856;2023-01-25T03:28:54;99274.75;;;1.02
24201;BMP280;2801;50.972;7.856;2023-01-25T03:31:21;99274.13;;;1.00
24201;BMP280;2801;50.972;7.856;2023-01-25T03:33:48;99271.06;;;1.03
24201;BMP280;2801;50.972;7.856;2023-01-25T03:36:15;99270.84;;;1.05
24201;BMP280;2801;50.972;7.856;2023-01-25T03:38:42;99270.31;;;0.96
24201;BMP280;2801;50.972;7.856;2023-01-25T03:41:09;99264.06;;;0.91
24201;BMP280;2801;50.972;7.856;2023-01-25T03:43:38;99266.78;;;0.84
24201;BMP280;2801;50.972;7.856;2023-01-25T03:46:05;99264.34;;;0.83
24201;BMP280;2801;50.972;7.856;2023-01-25T03:48:32;99260.03;;;0.88
24201;BMP280;2801;50.972;7.856;2023-01-25T03:50:59;99253.50;;;0.91
24201;BMP280;2801;50.972;7.856;2023-01-25T03:53:29;99257.13;;;0.96
24201;BMP280;2801;50.972;7.856;2023-01-25T03:56:06;99248.75;;;0.99
24201;BMP280;2801;50.972;7.856;2023-01-25T03:58:37;99252.16;;;1.06
24201;BMP280;2801;50.972;7.856;2023-01-25T04:01:06;99246.88;;;1.06
24201;BMP280;2801;50.972;7.856;2023-01-25T04:03:34;99249.13;;;1.03
24201;BMP280;2801;50.972;7.856;2023-01-25T04:06:02;99253.38;;;1.04
24201;BMP280;2801;50.972;7.856;2023-01-25T04:08:29;99247.50;;;1.02
24201;BMP280;2801;50.972;7.856;2023-01-25T04:11:02;99245.69;;;1.02
24201;BMP280;2801;50.972;7.856;2023-01-25T04:13:29;99245.09;;;1.00
24201;BMP280;2801;50.972;7.856;2023-01-25T04:15:57;99233.78;;;0.93
24201;BMP280;2801;50.972;7.856;2023-01-25T04:18:23;99238.50;;;0.91
24201;BMP280;2801;50.972;7.856;2023-01-25T04:20:55;99227.38;;;0.83
24201;BMP280;2801;50.972;7.856;2023-01-25T04:23:25;99231.28;;;0.80
24201;BMP280;2801;50.972;7.856;2023-01-25T04:26:03;99220.31;;;0.77
24201;BMP280;2801;50.972;7.856;2023-01-25T04:28:34;99218.28;;;0.79
24201;BMP280;2801;50.972;7.856;2023-01-25T04:31:01;99214.84;;;0.78
24201;BMP280;2801;50.972;7.856;2023-01-25T04:33:29;99211.53;;;0.83
24201;BMP280;2801;50.972;7.856;2023-01-25T04:35:56;99214.41;;;0.81
24201;BMP280;2801;50.972;7.856;2023-01-25T04:38:23;99213.16;;;0.84
24201;BMP280;2801;50.972;7.856;2023-01-25T04:40:51;99204.38;;;0.90
24201;BMP280;2801;50.972;7.856;2023-01-25T04:43:19;99202.91;;;0.94
24201;BMP280;2801;50.972;7.856;2023-01-25T04:45:47;99201.66;;;0.96
24201;BMP280;2801;50.972;7.856;2023-01-25T04:48:14;99208.03;;;0.89
24201;BMP280;2801;50.972;7.856;2023-01-25T04:50:42;99207.38;;;0.93
24201;BMP280;2801;50.972;7.856;2023-01-25T04:53:11;99205.31;;;0.95
24201;BMP280;2801;50.972;7.856;2023-01-25T04:55:38;99202.63;;;1.02
24201;BMP280;2801;50.972;7.856;2023-01-25T04:58:05;99201.34;;;1.04
24201;BMP280;2801;50.972;7.856;2023-01-25T05:00:32;99201.97;;;1.06
24201;BMP280;2801;50.972;7.856;2023-01-25T05:02:59;99196.28;;;1.03
24201;BMP280;2801;50.972;7.856;2023-01-25T05:05:26;99194.69;;;1.02
24201;BMP280;2801;50.972;7.856;2023-01-25T05:07:53;99189.41;;;1.02
24201;BMP280;2801;50.972;7.856;2023-01-25T05:10:19;99179.28;;;0.99
24201;BMP280;2801;50.972;7.856;2023-01-25T05:12:47;99187.06;;;0.94
24201;BMP280;2801;50.972;7.856;2023-01-25T05:15:14;99183.59;;;0.93
24201;BMP280;2801;50.972;7.856;2023-01-25T05:17:40;99189.56;;;0.89
24201;BMP280;2801;50.972;7.856;2023-01-25T05:20:08;99190.03;;;0.79
24201;BMP280;2801;50.972;7.856;2023-01-25T05:22:35;99186.72;;;0.66
24201;BMP280;2801;50.972;7.856;2023-01-25T05:25:03;99190.31;;;0.71
24201;BMP280;2801;50.972;7.856;2023-01-25T05:27:31;99189.75;;;0.69
24201;BMP280;2801;50.972;7.856;2023-01-25T05:29:58;99185.75;;;0.60
24201;BMP280;2801;50.972;7.856;2023-01-25T05:32:25;99180.72;;;0.59
24201;BMP280;2801;50.972;7.856;2023-01-25T05:34:52;99182.13;;;0.61
24201;BMP280;2801;50.972;7.856;2023-01-25T05:37:20;99179.91;;;0.58
24201;BMP280;2801;50.972;7.856;2023-01-25T05:39:47;99174.63;;;0.58
24201;BMP280;2801;50.972;7.856;2023-01-25T05:42:17;99175.06;;;0.55
24201;BMP280;2801;50.972;7.856;2023-01-25T05:44:44;99179.47;;;0.61
24201;BMP280;2801;50.972;7.856;2023-01-25T05:47:16;99183.50;;;0.64
24201;BMP280;2801;50.972;7.856;2023-01-25T05:49:43;99179.03;;;0.64
24201;BMP280;2801;50.972;7.856;2023-01-25T05:52:15;99183.44;;;0.70
24201;BMP280;2801;50.972;7.856;2023-01-25T05:54:42;99179.94;;;0.76
24201;BMP280;2801;50.972;7.856;2023-01-25T05:57:09;99174.19;;;0.79
24201;BMP280;2801;50.972;7.856;2023-01-25T05:59:36;99175.63;;;0.82
24201;BMP280;2801;50.972;7.856;2023-01-25T06:02:03;99169.16;;;0.78
24201;BMP280;2801;50.972;7.856;2023-01-25T06:04:30;99177.59;;;0.68
24201;BMP280;2801;50.972;7.856;2023-01-25T06:06:57;99164.50;;;0.55
24201;BMP280;2801;50.972;7.856;2023-01-25T06:09:23;99170.75;;;0.61
24201;BMP280;2801;50.972;7.856;2023-01-25T06:11:51;99165.09;;;0.57
24201;BMP280;2801;50.972;7.856;2023-01-25T06:14:18;99173.38;;;0.61
24201;BMP280;2801;50.972;7.856;2023-01-25T06:16:45;99167.44;;;0.65
24201;BMP280;2801;50.972;7.856;2023-01-25T06:19:12;99164.97;;;0.70
24201;BMP280;2801;50.972;7.856;2023-01-25T06:21:39;99165.34;;;0.74
24201;BMP280;2801;50.972;7.856;2023-01-25T06:24:06;99168.19;;;0.72
24201;BMP280;2801;50.972;7.856;2023-01-25T06:26:33;99169.19;;;0.71
24201;BMP280;2801;50.972;7.856;2023-01-25T06:29:00;99165.56;;;0.72
24201;BMP280;2801;50.972;7.856;2023-01-25T06:31:27;99156.22;;;0.70
24201;BMP280;2801;50.972;7.856;2023-01-25T06:33:54;99173.41;;;0.79
24201;BMP280;2801;50.972;7.856;2023-01-25T06:36:21;99163.28;;;0.76
24201;BMP280;2801;50.972;7.856;2023-01-25T06:38:50;99173.84;;;0.76
24201;BMP280;2801;50.972;7.856;2023-01-25T06:41:19;99170.78;;;0.79
24201;BMP280;2801;50.972;7.856;2023-01-25T06:43:49;99168.13;;;0.79
24201;BMP280;2801;50.972;7.856;2023-01-25T06:46:16;99165.09;;;0.75
24201;BMP280;2801;50.972;7.856;2023-01-25T06:48:43;99165.09;;;0.75
24201;BMP280;2801;50.972;7.856;2023-01-25T06:51:14;99154.81;;;0.67
24201;BMP280;2801;50.972;7.856;2023-01-25T06:53:44;99162.47;;;0.75
24201;BMP280;2801;50.972;7.856;2023-01-25T06:56:19;99161.25;;;0.78
24201;BMP280;2801;50.972;7.856;2023-01-25T06:58:50;99157.34;;;0.80
24201;BMP280;2801;50.972;7.856;2023-01-25T07:01:21;99151.69;;;0.77
24201;BMP280;2801;50.972;7.856;2023-01-25T07:03:54;99149.88;;;0.77
24201;BMP280;2801;50.972;7.856;2023-01-25T07:06:23;99153.53;;;0.76
24201;BMP280;2801;50.972;7.856;2023-01-25T07:08:50;99155.28;;;0.82
24201;BMP280;2801;50.972;7.856;2023-01-25T07:11:18;99151.91;;;0.75
24201;BMP280;2801;50.972;7.856;2023-01-25T07:13:46;99157.03;;;0.70
24201;BMP280;2801;50.972;7.856;2023-01-25T07:16:19;99156.47;;;0.68
24201;BMP280;2801;50.972;7.856;2023-01-25T07:18:46;99150.38;;;0.68
24201;BMP280;2801;50.972;7.856;2023-01-25T07:21:22;99154.03;;;0.67
24201;BMP280;2801;50.972;7.856;2023-01-25T07:23:50;99157.03;;;0.70
24201;BMP280;2801;50.972;7.856;2023-01-25T07:26:24;99152.94;;;0.74
24201;BMP280;2801;50.972;7.856;2023-01-25T07:28:52;99152.72;;;0.76
24201;BMP280;2801;50.972;7.856;2023-01-25T07:31:20;99159.16;;;0.80
24201;BMP280;2801;50.972;7.856;2023-01-25T07:33:53;99168.78;;;0.74
24201;BMP280;2801;50.972;7.856;2023-01-25T07:36:21;99159.69;;;0.70
24201;BMP280;2801;50.972;7.856;2023-01-25T07:38:51;99158.72;;;0.65
24201;BMP280;2801;50.972;7.856;2023-01-25T07:41:19;99144.00;;;0.57
24201;BMP280;2801;50.972;7.856;2023-01-25T07:43:46;99141.72;;;0.61
24201;BMP280;2801;50.972;7.856;2023-01-25T07:46:13;99139.44;;;0.64
24201;BMP280;2801;50.972;7.856;2023-01-25T07:48:47;99159.47;;;0.72
24201;BMP280;2801;50.972;7.856;2023-01-25T07:51:17;99157.03;;;0.70
24201;BMP280;2801;50.972;7.856;2023-01-25T07:53:58;99155.50;;;0.63
24201;BMP280;2801;50.972;7.856;2023-01-25T07:56:36;99155.13;;;0.59
24201;BMP280;2801;50.972;7.856;2023-01-25T07:59:04;99159.59;;;0.59
24201;BMP280;2801;50.972;7.856;2023-01-25T08:01:34;99157.53;;;0.61
24201;BMP280;2801;50.972;7.856;2023-01-25T08:04:04;99154.03;;;0.67
24201;BMP280;2801;50.972;7.856;2023-01-25T08:06:36;99147.88;;;0.73
24201;BMP280;2801;50.972;7.856;2023-01-25T08:09:16;99142.97;;;0.76
24201;BMP280;2801;50.972;7.856;2023-01-25T08:11:45;99149.34;;;0.87
24201;BMP280;2801;50.972;7.856;2023-01-25T08:14:14;99143.63;;;0.90
24201;BMP280;2801;50.972;7.856;2023-01-25T08:16:41;99162.34;;;0.88
24201;BMP280;2801;50.972;7.856;2023-01-25T08:19:09;99148.31;;;0.88
24201;BMP280;2801;50.972;7.856;2023-01-25T08:21:37;99152.81;;;0.87
24201;BMP280;2801;50.972;7.856;2023-01-25T08:24:06;99152.59;;;0.89
24201;BMP280;2801;50.972;7.856;2023-01-25T08:26:35;99148.69;;;0.91
24201;BMP280;2801;50.972;7.856;2023-01-25T08:29:03;99146.72;;;0.87
24201;BMP280;2801;50.972;7.856;2023-01-25T08:31:33;99151.16;;;0.86
24201;BMP280;2801;50.972;7.856;2023-01-25T08:34:01;99154.78;;;0.92
24201;BMP280;2801;50.972;7.856;2023-01-25T08:36:29;99155.59;;;0.92
24201;BMP280;2801;50.972;7.856;2023-01-25T08:39:00;99145.47;;;0.89
24201;BMP280;2801;50.972;7.856;2023-01-25T08:41:30;99155.94;;;0.96
24201;BMP280;2801;50.972;7.856;2023-01-25T08:43:58;99150.59;;;1.02
24201;BMP280;2801;50.972;7.856;2023-01-25T08:46:28;99145.53;;;1.01
24201;BMP280;2801;50.972;7.856;2023-01-25T08:48:59;99138.63;;;1.00
24201;BMP280;2801;50.972;7.856;2023-01-25T08:51:28;99134.03;;;0.95
24201;BMP280;2801;50.972;7.856;2023-01-25T08:54:05;99136.50;;;0.90
24201;BMP280;2801;50.972;7.856;2023-01-25T08:56:32;99135.50;;;0.91
24201;BMP280;2801;50.972;7.856;2023-01-25T08:58:59;99137.00;;;0.99
24201;BMP280;2801;50.972;7.856;2023-01-25T09:01:26;99132.56;;;0.99
24201;BMP280;2801;50.972;7.856;2023-01-25T09:03:53;99129.31;;;0.97
24201;BMP280;2801;50.972;7.856;2023-01-25T09:06:20;99131.59;;;0.94
24201;BMP280;2801;50.972;7.856;2023-01-25T09:08:47;99122.72;;;0.88
24201;BMP280;2801;50.972;7.856;2023-01-25T09:11:20;99119.25;;;0.88
24201;BMP280;2801;50.972;7.856;2023-01-25T09:13:48;99115.84;;;0.87
24201;BMP280;2801;50.972;7.856;2023-01-25T09:16:19;99113.56;;;0.91
24201;BMP280;2801;50.972;7.856;2023-01-25T09:19:00;99111.03;;;0.96
24201;BMP280;2801;50.972;7.856;2023-01-25T09:21:28;99111.56;;;1.04
24201;BMP280;2801;50.972;7.856;2023-01-25T09:23:56;99113.22;;;1.17
24201;BMP280;2801;50.972;7.856;2023-01-25T09:26:37;99116.22;;;1.20
24201;BMP280;2801;50.972;7.856;2023-01-25T09:29:05;99116.09;;;1.15
24201;BMP280;2801;50.972;7.856;2023-01-25T09:31:36;99115.88;;;1.17
24201;BMP280;2801;50.972;7.856;2023-01-25T09:34:06;99111.44;;;1.29
24201;BMP280;2801;50.972;7.856;2023-01-25T09:36:35;99106.88;;;1.36
24201;BMP280;2801;50.972;7.856;2023-01-25T09:39:02;99093.53;;;1.31
24201;BMP280;2801;50.972;7.856;2023-01-25T09:47:52;99101.41;;;1.19
24201;BMP280;2801;50.972;7.856;2023-01-25T09:53:24;99090.28;;;1.17
24201;BMP280;2801;50.972;7.856;2023-01-25T09:55:57;99087.84;;;1.16
24201;BMP280;2801;50.972;7.856;2023-01-25T09:58:42;99083.94;;;1.18
24201;BMP280;2801;50.972;7.856;2023-01-25T10:01:40;99079.81;;;1.22
24201;BMP280;2801;50.972;7.856;2023-01-25T10:04:24;99076.66;;;1.32
24201;BMP280;2801;50.972;7.856;2023-01-25T10:06:56;99067.47;;;1.34
24201;BMP280;2801;50.972;7.856;2023-01-25T10:09:41;99077.03;;;1.47
24201;BMP280;2801;50.972;7.856;2023-01-25T10:12:23;99069.00;;;1.53
24201;BMP280;2801;50.972;7.856;2023-01-25T10:14:51;99061.91;;;1.65
24201;BMP280;2801;50.972;7.856;2023-01-25T10:17:39;99063.19;;;1.74
24201;BMP280;2801;50.972;7.856;2023-01-25T10:20:23;99060.22;;;1.82
24201;BMP280;2801;50.972;7.856;2023-01-25T10:26:13;99066.88;;;1.85
24201;BMP280;2801;50.972;7.856;2023-01-25T10:28:55;99062.28;;;1.80
24201;BMP280;2801;50.972;7.856;2023-01-25T10:31:49;99055.41;;;1.91
24201;BMP280;2801;50.972;7.856;2023-01-25T10:34:33;99052.06;;;1.95
24201;BMP280;2801;50.972;7.856;2023-01-25T10:37:26;99041.94;;;1.92
24201;BMP280;2801;50.972;7.856;2023-01-25T10:40:13;99040.31;;;1.91
24201;BMP280;2801;50.972;7.856;2023-01-25T10:42:55;99043.19;;;1.90
24201;BMP280;2801;50.972;7.856;2023-01-25T10:45:25;99036.31;;;2.00
24201;BMP280;2801;50.972;7.856;2023-01-25T10:48:03;99034.34;;;1.96
24201;BMP280;2801;50.972;7.856;2023-01-25T10:53:04;99026.06;;;1.81
24201;BMP280;2801;50.972;7.856;2023-01-25T10:55:32;99023.16;;;1.71
24201;BMP280;2801;50.972;7.856;2023-01-25T10:57:58;99014.91;;;1.67
24201;BMP280;2801;50.972;7.856;2023-01-25T11:00:36;99011.22;;;1.68
24201;BMP280;2801;50.972;7.856;2023-01-25T11:03:05;99010.75;;;1.71
24201;BMP280;2801;50.972;7.856;2023-01-25T11:05:38;99003.97;;;1.64
24201;BMP280;2801;50.972;7.856;2023-01-25T11:08:32;98998.81;;;1.69
24201;BMP280;2801;50.972;7.856;2023-01-25T11:13:47;98990.44;;;1.72
24201;BMP280;2801;50.972;7.856;2023-01-25T11:16:35;98987.06;;;1.76
24201;BMP280;2801;50.972;7.856;2023-01-25T11:21:55;98988.94;;;1.99
24201;BMP280;2801;50.972;7.856;2023-01-25T11:24:33;98985.56;;;2.15
24201;BMP280;2801;50.972;7.856;2023-01-25T11:27:23;98984.41;;;2.22
24201;BMP280;2801;50.972;7.856;2023-01-25T11:30:15;98984.88;;;2.19
24201;BMP280;2801;50.972;7.856;2023-01-25T11:32:42;98974.72;;;2.28
24201;BMP280;2801;50.972;7.856;2023-01-25T11:35:23;98979.41;;;2.37
24201;BMP280;2801;50.972;7.856;2023-01-25T11:38:18;98961.56;;;2.44
24201;BMP280;2801;50.972;7.856;2023-01-25T11:41:32;98957.31;;;2.43
24201;BMP280;2801;50.972;7.856;2023-01-25T11:50:32;98941.44;;;2.43
24201;BMP280;2801;50.972;7.856;2023-01-25T11:53:40;98936.84;;;2.39
24201;BMP280;2801;50.972;7.856;2023-01-25T11:56:39;98940.91;;;2.30
24201;BMP280;2801;50.972;7.856;2023-01-25T12:04:56;98917.31;;;2.28
24201;BMP280;2801;50.972;7.856;2023-01-25T12:08:16;98921.69;;;2.34
24201;BMP280;2801;50.972;7.856;2023-01-25T12:11:27;98907.72;;;2.39
24201;BMP280;2801;50.972;7.856;2023-01-25T12:23:40;98876.88;;;2.44
24201;BMP280;2801;50.972;7.856;2023-01-25T12:26:22;98868.00;;;2.50
24201;BMP280;2801;50.972;7.856;2023-01-25T12:31:59;98856.81;;;2.48
24201;BMP280;2801;50.972;7.856;2023-01-25T12:34:37;98850.00;;;2.52
24201;BMP280;2801;50.972;7.856;2023-01-25T12:37:25;98842.41;;;2.56
24201;BMP280;2801;50.972;7.856;2023-01-25T12:40:08;98838.47;;;2.58
24201;BMP280;2801;50.972;7.856;2023-01-25T12:42:54;98838.44;;;2.42
24201;BMP280;2801;50.972;7.856;2023-01-25T12:45:31;98822.13;;;2.33
24201;BMP280;2801;50.972;7.856;2023-01-25T12:48:02;98833.00;;;2.20
24201;BMP280;2801;50.972;7.856;2023-01-25T12:50:40;98830.53;;;2.14
24201;BMP280;2801;50.972;7.856;2023-01-25T12:53:20;98818.31;;;2.13
24201;BMP280;2801;50.972;7.856;2023-01-25T12:55:50;98804.84;;;2.14
24201;BMP280;2801;50.972;7.856;2023-01-25T12:58:42;98801.03;;;2.22
24201;BMP280;2801;50.972;7.856;2023-01-25T13:01:33;98795.03;;;2.26
24201;BMP280;2801;50.972;7.856;2023-01-25T13:10:12;98779.00;;;2.05
24201;BMP280;2801;50.972;7.856;2023-01-25T13:15:48;98763.00;;;2.11
24201;BMP280;2801;50.972;7.856;2023-01-25T13:21:00;98761.38;;;2.10
24201;BMP280;2801;50.972;7.856;2023-01-25T13:23:35;98758.28;;;2.13
24201;BMP280;2801;50.972;7.856;2023-01-25T13:28:51;98761.22;;;2.00
24201;BMP280;2801;50.972;7.856;2023-01-25T13:37:26;98739.16;;;1.95
24201;BMP280;2801;50.972;7.856;2023-01-25T13:40:29;98742.69;;;2.00
24201;BMP280;2801;50.972;7.856;2023-01-25T13:45:34;98728.28;;;2.08
24201;BMP280;2801;50.972;7.856;2023-01-25T13:48:24;98721.69;;;2.10
24201;BMP280;2801;50.972;7.856;2023-01-25T13:51:00;98719.63;;;2.12
24201;BMP280;2801;50.972;7.856;2023-01-25T13:53:28;98711.22;;;2.15
24201;BMP280;2801;50.972;7.856;2023-01-25T13:55:58;98708.41;;;2.22
24201;BMP280;2801;50.972;7.856;2023-01-25T14:01:27;98697.91;;;2.27
24201;BMP280;2801;50.972;7.856;2023-01-25T14:03:58;98702.97;;;2.28
24201;BMP280;2801;50.972;7.856;2023-01-25T14:06:38;98701.13;;;2.29
24201;BMP280;2801;50.972;7.856;2023-01-25T14:09:18;98696.88;;;2.28
24201;BMP280;2801;50.972;7.856;2023-01-25T14:11:59;98697.03;;;2.21
24201;BMP280;2801;50.972;7.856;2023-01-25T14:14:31;98682.59;;;2.12
24201;BMP280;2801;50.972;7.856;2023-01-25T14:17:12;98684.34;;;2.07
24201;BMP280;2801;50.972;7.856;2023-01-25T14:19:47;98686.28;;;1.95
24201;BMP280;2801;50.972;7.856;2023-01-25T14:22:30;98683.03;;;1.93
24201;BMP280;2801;50.972;7.856;2023-01-25T14:25:21;98683.66;;;1.83
24201;BMP280;2801;50.972;7.856;2023-01-25T14:27:52;98687.81;;;1.79
24201;BMP280;2801;50.972;7.856;2023-01-25T14:30:30;98686.69;;;1.75
24201;BMP280;2801;50.972;7.856;2023-01-25T14:33:01;98679.66;;;1.81
24201;BMP280;2801;50.972;7.856;2023-01-25T14:35:40;98676.53;;;1.84
24201;BMP280;2801;50.972;7.856;2023-01-25T14:38:30;98670.13;;;1.80
24201;BMP280;2801;50.972;7.856;2023-01-25T14:41:17;98659.38;;;1.70
24201;BMP280;2801;50.972;7.856;2023-01-25T14:43:52;98658.31;;;1.71
24201;BMP280;2801;50.972;7.856;2023-01-25T14:46:26;98658.19;;;1.77
24201;BMP280;2801;50.972;7.856;2023-01-25T14:51:48;98652.16;;;1.82
24201;BMP280;2801;50.972;7.856;2023-01-25T14:54:28;98650.56;;;1.81
24201;BMP280;2801;50.972;7.856;2023-01-25T14:57:00;98636.53;;;1.80
24201;BMP280;2801;50.972;7.856;2023-01-25T14:59:44;98636.31;;;1.82
24201;BMP280;2801;50.972;7.856;2023-01-25T15:02:39;98634.25;;;1.84
24201;BMP280;2801;50.972;7.856;2023-01-25T15:05:28;98642.16;;;1.84
24201;BMP280;2801;50.972;7.856;2023-01-25T15:10:36;98650.50;;;1.76
24201;BMP280;2801;50.972;7.856;2023-01-25T15:15:55;98634.22;;;1.67
24201;BMP280;2801;50.972;7.856;2023-01-25T15:21:27;98622.59;;;1.68
24201;BMP280;2801;50.972;7.856;2023-01-25T15:23:58;98617.53;;;1.67
24201;BMP280;2801;50.972;7.856;2023-01-25T15:26:33;98611.81;;;1.58
24201;BMP280;2801;50.972;7.856;2023-01-25T15:29:13;98629.63;;;1.63
24201;BMP280;2801;50.972;7.856;2023-01-25T15:31:41;98618.28;;;1.62
24201;BMP280;2801;50.972;7.856;2023-01-25T15:34:27;98617.53;;;1.67
24201;BMP280;2801;50.972;7.856;2023-01-25T15:36:58;98614.56;;;1.63
24201;BMP280;2801;50.972;7.856;2023-01-25T15:39:26;98614.22;;;1.60
24201;BMP280;2801;50.972;7.856;2023-01-25T15:41:52;98612.31;;;1.55
24201;BMP280;2801;50.972;7.856;2023-01-25T15:44:19;98615.66;;;1.51
24201;BMP280;2801;50.972;7.856;2023-01-25T15:46:50;98614.31;;;1.48
24201;BMP280;2801;50.972;7.856;2023-01-25T15:49:24;98620.75;;;1.41
24201;BMP280;2801;50.972;7.856;2023-01-25T15:51:53;98610.09;;;1.36
24201;BMP280;2801;50.972;7.856;2023-01-25T15:54:20;98606.78;;;1.29
24201;BMP280;2801;50.972;7.856;2023-01-25T15:56:54;98604.78;;;1.19
24201;BMP280;2801;50.972;7.856;2023-01-25T15:59:21;98602.50;;;1.11
24201;BMP280;2801;50.972;7.856;2023-01-25T16:01:48;98597.59;;;1.03
24201;BMP280;2801;50.972;7.856;2023-01-25T16:04:15;98596.00;;;1.02
24201;BMP280;2801;50.972;7.856;2023-01-25T16:06:50;98599.25;;;0.93
24201;BMP280;2801;50.972;7.856;2023-01-25T16:09:25;98595.69;;;0.87
24201;BMP280;2801;50.972;7.856;2023-01-25T16:11:55;98586.88;;;0.82
24201;BMP280;2801;50.972;7.856;2023-01-25T16:14:24;98581.47;;;0.77
24201;BMP280;2801;50.972;7.856;2023-01-25T16:17:01;98583.09;;;0.78
24201;BMP280;2801;50.972;7.856;2023-01-25T16:19:29;98581.47;;;0.77
24201;BMP280;2801;50.972;7.856;2023-01-25T16:21:56;98585.47;;;0.79
24201;BMP280;2801;50.972;7.856;2023-01-25T16:24:23;98588.13;;;0.79
24201;BMP280;2801;50.972;7.856;2023-01-25T16:26:56;98588.13;;;0.79
24201;BMP280;2801;50.972;7.856;2023-01-25T16:29:24;98582.06;;;0.79
24201;BMP280;2801;50.972;7.856;2023-01-25T16:31:52;98585.00;;;0.82
24201;BMP280;2801;50.972;7.856;2023-01-25T16:34:20;98586.63;;;0.83
24201;BMP280;2801;50.972;7.856;2023-01-25T16:36:48;98593.84;;;0.88